createdAt,value
2023-03-16T00:01:42.794Z,0.11
2023-03-16T00:04:09.459Z,0.20
2023-03-16T00:06:36.674Z,0.21
2023-03-16T00:09:04.144Z,0.18
2023-03-16T00:11:30.704Z,0.14
2023-03-16T00:13:58.561Z,0.23
2023-03-16T00:16:25.148Z,0.06
2023-03-16T00:18:51.662Z,-0.04
2023-03-16T00:21:18.132Z,0.03
2023-03-16T00:23:44.639Z,-0.17
2023-03-16T00:26:13.073Z,-0.08
2023-03-16T00:28:39.989Z,-0.01
2023-03-16T00:31:08.865Z,-0.02
2023-03-16T00:33:35.378Z,0.10
2023-03-16T00:36:02.796Z,0.17
2023-03-16T00:38:35.047Z,-0.12
2023-03-16T00:41:06.658Z,-0.18
2023-03-16T00:43:41.026Z,-0.16
2023-03-16T00:46:09.308Z,-0.40
2023-03-16T00:48:38.104Z,-0.26
2023-03-16T00:51:07.318Z,-0.25
2023-03-16T00:53:34.873Z,-0.16
2023-03-16T00:56:05.478Z,-0.34
2023-03-16T00:58:37.377Z,-0.17
2023-03-16T01:01:09.011Z,-0.28
2023-03-16T01:03:36.207Z,-0.21
2023-03-16T01:06:15.191Z,-0.36
2023-03-16T01:08:42.021Z,-0.41
2023-03-16T01:11:11.550Z,-0.35
2023-03-16T01:13:38.903Z,-0.27
2023-03-16T01:16:06.678Z,-0.22
2023-03-16T01:18:35.992Z,-0.30
2023-03-16T01:21:04.289Z,-0.40
2023-03-16T01:23:31.525Z,-0.21
2023-03-16T01:25:59.446Z,-0.33
2023-03-16T01:28:28.252Z,-0.20
2023-03-16T01:30:59.060Z,-0.19
2023-03-16T01:33:26.802Z,-0.05
2023-03-16T01:35:59.101Z,-0.30
2023-03-16T01:38:26.140Z,-0.39
2023-03-16T01:40:54.260Z,-0.22
2023-03-16T01:43:23.984Z,-0.27
2023-03-16T01:46:05.790Z,-0.30
2023-03-16T01:48:54.533Z,-0.36
2023-03-16T01:51:38.322Z,-0.43
2023-03-16T01:54:14.487Z,-0.48
2023-03-16T01:57:06.402Z,-0.51
2023-03-16T01:59:53.130Z,-0.41
2023-03-16T02:02:23.860Z,-0.35
2023-03-16T02:05:07.022Z,-0.47
2023-03-16T02:07:40.198Z,-0.43
2023-03-16T02:10:07.585Z,-0.44
2023-03-16T02:12:34.003Z,-0.39
2023-03-16T02:15:00.395Z,-0.39
2023-03-16T02:17:30.896Z,-0.51
2023-03-16T02:20:16.221Z,-0.53
2023-03-16T02:22:48.880Z,-0.35
2023-03-16T02:25:18.331Z,-0.52
2023-03-16T02:27:56.712Z,-0.52
2023-03-16T02:30:23.389Z,-0.60
2023-03-16T02:32:53.687Z,-0.63
2023-03-16T02:35:21.074Z,-0.78
2023-03-16T02:37:47.494Z,-0.54
2023-03-16T02:40:21.420Z,-0.65
2023-03-16T02:43:02.723Z,-0.69
2023-03-16T02:45:34.583Z,-0.79
2023-03-16T02:48:05.444Z,-0.83
2023-03-16T02:50:31.868Z,-0.79
2023-03-16T02:52:58.288Z,-0.88
2023-03-16T02:55:24.714Z,-1.05
2023-03-16T02:57:52.162Z,-0.80
2023-03-16T03:00:19.282Z,-0.87
2023-03-16T03:02:46.127Z,-0.75
2023-03-16T03:05:12.761Z,-0.87
2023-03-16T03:07:39.272Z,-0.81
2023-03-16T03:10:06.945Z,-0.73
2023-03-16T03:12:34.184Z,-0.89
2023-03-16T03:15:00.724Z,-0.86
2023-03-16T03:17:30.100Z,-0.92
2023-03-16T03:20:02.369Z,-0.93
2023-03-16T03:22:28.863Z,-0.94
2023-03-16T03:24:55.338Z,-0.98
2023-03-16T03:27:22.450Z,-0.71
2023-03-16T03:29:48.948Z,-0.79
2023-03-16T03:32:15.394Z,-1.05
2023-03-16T03:34:42.520Z,-0.72
2023-03-16T03:37:09.234Z,-0.84
2023-03-16T03:39:35.914Z,-0.86
2023-03-16T03:42:03.029Z,-0.85
2023-03-16T03:44:29.531Z,-0.97
2023-03-16T03:46:55.981Z,-0.89
2023-03-16T03:49:22.393Z,-0.77
2023-03-16T03:51:48.946Z,-0.85
2023-03-16T03:54:15.429Z,-0.97
2023-03-16T03:56:41.871Z,-0.91
2023-03-16T03:59:08.352Z,-0.81
2023-03-16T04:01:34.764Z,-0.86
2023-03-16T04:04:01.173Z,-0.83
2023-03-16T04:06:27.860Z,-1.04
2023-03-16T04:08:54.446Z,-0.96
2023-03-16T04:11:21.381Z,-0.82
2023-03-16T04:13:47.826Z,-0.93
2023-03-16T04:16:16.287Z,-0.89
2023-03-16T04:18:42.819Z,-1.08
2023-03-16T04:21:15.767Z,-0.91
2023-03-16T04:23:42.490Z,-1.05
2023-03-16T04:26:09.173Z,-0.88
2023-03-16T04:28:35.598Z,-1.15
2023-03-16T04:31:04.580Z,-1.14
2023-03-16T04:33:32.302Z,-1.16
2023-03-16T04:35:59.285Z,-1.11
2023-03-16T04:38:25.904Z,-0.99
2023-03-16T04:40:52.297Z,-0.93
2023-03-16T04:43:18.688Z,-1.04
2023-03-16T04:45:45.141Z,-1.28
2023-03-16T04:48:11.917Z,-1.19
2023-03-16T04:50:38.383Z,-1.35
2023-03-16T04:53:04.933Z,-1.29
2023-03-16T04:55:31.518Z,-1.12
2023-03-16T04:57:58.296Z,-1.30
2023-03-16T05:00:25.610Z,-1.28
2023-03-16T05:02:52.399Z,-1.17
2023-03-16T05:05:19.522Z,-1.14
2023-03-16T05:07:46.067Z,-1.34
2023-03-16T05:10:15.824Z,-1.36
2023-03-16T05:12:42.589Z,-1.45
2023-03-16T05:15:09.615Z,-1.51
2023-03-16T05:17:36.097Z,-1.24
2023-03-16T05:20:15.858Z,-1.42
2023-03-16T05:22:44.702Z,-1.13
2023-03-16T05:25:15.073Z,-1.36
2023-03-16T05:27:46.329Z,-1.42
2023-03-16T05:30:14.009Z,-1.42
2023-03-16T05:32:40.559Z,-1.43
2023-03-16T05:35:07.400Z,-1.52
2023-03-16T05:37:37.985Z,-1.41
2023-03-16T05:40:16.900Z,-1.61
2023-03-16T05:42:45.901Z,-1.60
2023-03-16T05:45:14.556Z,-1.58
2023-03-16T05:47:42.011Z,-1.68
2023-03-16T05:50:11.146Z,-1.60
2023-03-16T05:52:38.780Z,-1.43
2023-03-16T05:55:06.975Z,-1.36
2023-03-16T05:57:34.192Z,-1.73
2023-03-16T06:00:02.210Z,-1.49
2023-03-16T06:02:28.871Z,-1.43
2023-03-16T06:04:55.355Z,-1.62
2023-03-16T06:07:21.744Z,-1.56
2023-03-16T06:09:48.399Z,-1.57
2023-03-16T06:12:14.874Z,-1.31
2023-03-16T06:14:41.336Z,-1.05
2023-03-16T06:17:07.866Z,-1.03
2023-03-16T06:19:34.268Z,-1.00
2023-03-16T06:22:00.850Z,-0.97
2023-03-16T06:24:27.448Z,-0.65
2023-03-16T06:26:53.875Z,-0.63
2023-03-16T06:29:20.270Z,-0.46
2023-03-16T06:31:46.819Z,-0.52
2023-03-16T06:34:13.215Z,-0.65
2023-03-16T06:36:39.734Z,-0.48
2023-03-16T06:39:06.352Z,-0.37
2023-03-16T06:41:32.833Z,-0.37
2023-03-16T06:43:59.298Z,-0.52
2023-03-16T06:46:25.890Z,-0.29
2023-03-16T06:48:52.374Z,-0.40
2023-03-16T06:51:18.936Z,-0.16
2023-03-16T06:53:45.497Z,-0.05
2023-03-16T06:56:12.224Z,0.07
2023-03-16T06:58:38.585Z,0.17
2023-03-16T07:01:05.715Z,-0.02
2023-03-16T07:03:32.143Z,-0.08
2023-03-16T07:05:58.613Z,0.28
2023-03-16T07:08:25.071Z,0.15
2023-03-16T07:10:52.106Z,0.15
2023-03-16T07:13:18.739Z,0.23
2023-03-16T07:15:45.182Z,0.22
2023-03-16T07:18:14.370Z,0.28
2023-03-16T07:20:42.049Z,0.32
2023-03-16T07:23:08.683Z,0.43
2023-03-16T07:25:35.158Z,0.44
2023-03-16T07:28:01.786Z,0.52
2023-03-16T07:30:28.373Z,0.59
2023-03-16T07:32:55.078Z,0.76
2023-03-16T07:35:21.983Z,0.81
2023-03-16T07:37:48.463Z,0.86
2023-03-16T07:40:15.363Z,1.05
2023-03-16T07:42:42.377Z,1.03
2023-03-16T07:45:09.725Z,1.08
2023-03-16T07:47:36.532Z,1.26
2023-03-16T07:50:03.073Z,1.24
2023-03-16T07:52:29.510Z,1.41
2023-03-16T07:54:56.008Z,1.41
2023-03-16T07:57:22.633Z,1.61
2023-03-16T07:59:49.042Z,1.74
2023-03-16T08:02:18.324Z,1.63
2023-03-16T08:04:45.632Z,1.77
2023-03-16T08:07:14.266Z,1.82
2023-03-16T08:09:41.274Z,1.87
2023-03-16T08:12:09.172Z,1.97
2023-03-16T08:14:36.756Z,2.05
2023-03-16T08:17:05.109Z,2.03
2023-03-16T08:19:32.415Z,2.17
2023-03-16T08:22:02.083Z,2.32
2023-03-16T08:24:29.712Z,2.37
2023-03-16T08:26:57.444Z,2.47
2023-03-16T08:29:25.196Z,2.53
2023-03-16T08:31:57.815Z,2.59
2023-03-16T08:34:24.858Z,2.62
2023-03-16T08:36:51.312Z,2.60
2023-03-16T08:39:17.824Z,2.75
2023-03-16T08:41:45.757Z,2.89
2023-03-16T08:44:12.977Z,2.85
2023-03-16T08:46:40.605Z,2.92
2023-03-16T08:49:07.188Z,2.96
2023-03-16T08:51:33.684Z,3.08
2023-03-16T08:54:00.145Z,3.10
2023-03-16T08:56:26.616Z,3.12
2023-03-16T08:58:53.094Z,3.17
2023-03-16T09:01:20.323Z,3.29
2023-03-16T09:03:47.310Z,3.33
2023-03-16T09:06:17.033Z,3.39
2023-03-16T09:08:45.350Z,3.55
2023-03-16T09:11:15.695Z,3.43
2023-03-16T09:13:43.148Z,3.56
2023-03-16T09:16:11.981Z,3.61
2023-03-16T09:18:38.717Z,3.81
2023-03-16T09:21:07.765Z,3.77
2023-03-16T09:23:37.429Z,3.83
2023-03-16T09:26:07.482Z,3.85
2023-03-16T09:28:35.993Z,3.91
2023-03-16T09:31:03.279Z,3.94
2023-03-16T09:33:30.251Z,3.97
2023-03-16T09:35:57.493Z,4.01
2023-03-16T09:38:26.341Z,4.03
2023-03-16T09:41:08.800Z,4.12
2023-03-16T09:43:57.126Z,4.14
2023-03-16T09:46:36.474Z,4.15
2023-03-16T09:49:03.708Z,4.20
2023-03-16T09:51:43.460Z,4.36
2023-03-16T09:54:22.224Z,4.43
2023-03-16T09:57:26.231Z,4.42
2023-03-16T10:00:11.129Z,4.56
2023-03-16T10:03:15.116Z,4.57
2023-03-16T10:05:42.027Z,4.66
2023-03-16T10:08:12.678Z,4.64
2023-03-16T10:10:46.891Z,4.66
2023-03-16T10:13:27.621Z,4.73
2023-03-16T10:15:56.742Z,4.80
2023-03-16T10:18:29.274Z,4.81
2023-03-16T10:20:58.006Z,4.87
2023-03-16T10:23:26.023Z,4.92
2023-03-16T10:25:56.587Z,4.95
2023-03-16T10:28:26.215Z,5.03
2023-03-16T10:30:58.990Z,5.08
2023-03-16T10:33:27.041Z,5.09
2023-03-16T10:36:10.173Z,5.11
2023-03-16T10:38:55.213Z,5.12
2023-03-16T10:41:23.780Z,5.14
2023-03-16T10:43:51.849Z,5.23
2023-03-16T10:46:18.908Z,5.24
2023-03-16T10:49:00.009Z,5.26
2023-03-16T10:51:32.577Z,5.34
2023-03-16T10:54:16.201Z,5.22
2023-03-16T10:56:42.758Z,5.34
2023-03-16T10:59:15.217Z,5.42
2023-03-16T11:01:48.836Z,5.39
2023-03-16T11:04:17.901Z,5.41
2023-03-16T11:06:58.273Z,5.41
2023-03-16T11:09:32.938Z,5.45
2023-03-16T11:12:00.812Z,5.43
2023-03-16T11:14:28.617Z,5.58
2023-03-16T11:17:09.389Z,5.57
2023-03-16T11:20:01.066Z,5.59
2023-03-16T11:22:30.057Z,5.52
2023-03-16T11:24:56.416Z,5.52
2023-03-16T11:27:24.515Z,5.48
2023-03-16T11:30:22.071Z,5.52
2023-03-16T11:32:51.139Z,5.48
2023-03-16T11:35:19.543Z,5.48
2023-03-16T11:37:58.747Z,5.49
2023-03-16T11:40:47.280Z,5.51
2023-03-16T11:43:28.705Z,5.58
2023-03-16T11:46:03.911Z,5.49
2023-03-16T11:48:48.273Z,5.54
2023-03-16T11:51:42.296Z,5.57
2023-03-16T11:54:26.777Z,5.51
2023-03-16T11:56:59.438Z,5.56
2023-03-16T11:59:32.166Z,5.49
2023-03-16T12:02:17.049Z,5.56
2023-03-16T12:05:28.800Z,5.57
2023-03-16T12:08:01.513Z,5.56
2023-03-16T12:10:52.854Z,5.55
2023-03-16T12:13:19.898Z,5.53
2023-03-16T12:15:53.497Z,5.51
2023-03-16T12:18:30.357Z,5.54
2023-03-16T12:21:04.155Z,5.53
2023-03-16T12:23:36.621Z,5.57
2023-03-16T12:26:03.748Z,5.57
2023-03-16T12:28:33.325Z,5.52
2023-03-16T12:31:10.615Z,5.54
2023-03-16T12:33:52.923Z,5.60
2023-03-16T12:36:50.781Z,5.61
2023-03-16T12:40:05.608Z,5.66
2023-03-16T12:42:41.540Z,5.65
2023-03-16T12:45:17.707Z,5.70
2023-03-16T12:48:00.110Z,5.76
2023-03-16T12:50:27.231Z,5.89
2023-03-16T12:52:54.100Z,5.87
2023-03-16T12:55:24.494Z,5.89
2023-03-16T12:57:58.778Z,5.91
2023-03-16T13:00:35.781Z,5.97
2023-03-16T13:03:03.459Z,5.97
2023-03-16T13:05:32.840Z,6.04
2023-03-16T13:08:25.840Z,6.04
2023-03-16T13:11:05.707Z,6.16
2023-03-16T13:13:34.098Z,6.15
2023-03-16T13:16:10.135Z,6.08
2023-03-16T13:21:41.674Z,6.15
2023-03-16T13:24:26.036Z,6.14
2023-03-16T13:27:02.477Z,6.13
2023-03-16T13:29:31.281Z,6.18
2023-03-16T13:32:08.736Z,6.19
2023-03-16T13:34:49.198Z,6.17
2023-03-16T13:37:19.743Z,6.26
2023-03-16T13:40:00.261Z,6.16
2023-03-16T13:42:32.349Z,6.25
2023-03-16T13:45:07.897Z,6.30
2023-03-16T13:47:34.452Z,6.35
2023-03-16T13:50:00.987Z,6.27
2023-03-16T13:52:30.726Z,6.20
2023-03-16T13:54:58.883Z,6.16
2023-03-16T13:57:31.928Z,6.24
2023-03-16T14:00:15.733Z,6.24
2023-03-16T14:02:44.304Z,6.24
2023-03-16T14:05:22.032Z,6.25
2023-03-16T14:07:51.093Z,6.20
2023-03-16T14:10:18.685Z,6.25
2023-03-16T14:12:57.542Z,6.32
2023-03-16T14:15:28.166Z,6.26
2023-03-16T14:18:12.305Z,6.21
2023-03-16T14:20:41.612Z,6.19
2023-03-16T14:23:36.415Z,6.18
2023-03-16T14:26:05.675Z,6.17
2023-03-16T14:28:33.916Z,6.30
2023-03-16T14:31:11.690Z,6.33
2023-03-16T14:33:42.962Z,6.26
2023-03-16T14:36:18.711Z,6.24
2023-03-16T14:38:48.284Z,6.28
2023-03-16T14:41:27.961Z,6.32
2023-03-16T14:43:58.017Z,6.29
2023-03-16T14:46:53.504Z,6.44
2023-03-16T14:49:26.141Z,6.44
2023-03-16T14:51:55.377Z,6.43
2023-03-16T14:54:23.092Z,6.52
2023-03-16T14:57:00.783Z,6.63
2023-03-16T14:59:27.620Z,6.61
2023-03-16T15:01:55.183Z,6.54
2023-03-16T15:04:34.460Z,6.57
2023-03-16T15:07:21.837Z,6.47
2023-03-16T15:09:50.523Z,6.48
2023-03-16T15:12:19.556Z,6.46
2023-03-16T15:15:05.893Z,6.47
2023-03-16T15:17:32.479Z,6.60
2023-03-16T15:19:59.181Z,6.54
2023-03-16T15:22:32.552Z,6.63
2023-03-16T15:25:00.107Z,6.64
2023-03-16T15:27:32.999Z,6.72
2023-03-16T15:29:59.736Z,6.68
2023-03-16T15:32:26.412Z,6.75
2023-03-16T15:34:53.017Z,6.78
2023-03-16T15:37:20.319Z,6.76
2023-03-16T15:39:47.437Z,6.71
2023-03-16T15:42:18.761Z,6.67
2023-03-16T15:44:46.476Z,6.72
2023-03-16T15:47:13.373Z,6.64
2023-03-16T15:49:47.286Z,6.66
2023-03-16T15:52:31.732Z,6.78
2023-03-16T15:55:03.060Z,6.80
2023-03-16T15:57:29.507Z,6.76
2023-03-16T15:59:55.956Z,6.74
2023-03-16T16:02:29.991Z,6.76
2023-03-16T16:04:57.321Z,6.73
2023-03-16T16:07:24.482Z,6.71
2023-03-16T16:09:51.190Z,6.66
2023-03-16T16:12:20.301Z,6.58
2023-03-16T16:14:47.098Z,6.64
2023-03-16T16:17:24.773Z,6.64
2023-03-16T16:19:53.590Z,6.52
2023-03-16T16:22:20.203Z,6.52
2023-03-16T16:24:47.284Z,6.38
2023-03-16T16:27:13.830Z,6.40
2023-03-16T16:29:43.534Z,6.32
2023-03-16T16:32:22.506Z,6.28
2023-03-16T16:35:03.307Z,6.29
2023-03-16T16:37:30.319Z,6.28
2023-03-16T16:39:56.919Z,6.19
2023-03-16T16:42:23.405Z,6.14
2023-03-16T16:44:57.190Z,6.12
2023-03-16T16:47:23.678Z,6.11
2023-03-16T16:49:51.082Z,6.06
2023-03-16T16:52:18.466Z,6.01
2023-03-16T16:54:45.012Z,5.95
2023-03-16T16:57:20.088Z,5.94
2023-03-16T16:59:47.930Z,5.94
2023-03-16T17:02:27.759Z,5.97
2023-03-16T17:04:54.330Z,5.93
2023-03-16T17:07:20.967Z,5.89
2023-03-16T17:09:47.545Z,5.75
2023-03-16T17:12:21.669Z,5.71
2023-03-16T17:14:51.862Z,5.77
2023-03-16T17:17:18.822Z,5.67
2023-03-16T17:19:46.593Z,5.61
2023-03-16T17:22:31.209Z,5.68
2023-03-16T17:24:58.395Z,5.58
2023-03-16T17:27:28.408Z,5.53
2023-03-16T17:29:55.933Z,5.46
2023-03-16T17:32:22.789Z,5.54
2023-03-16T17:34:50.168Z,5.45
2023-03-16T17:37:22.056Z,5.40
2023-03-16T17:39:48.856Z,5.34
2023-03-16T17:42:22.412Z,5.31
2023-03-16T17:44:52.065Z,5.12
2023-03-16T17:47:21.395Z,5.17
2023-03-16T17:49:49.023Z,5.10
2023-03-16T17:52:18.915Z,5.17
2023-03-16T17:54:46.956Z,5.17
2023-03-16T17:57:19.866Z,5.16
2023-03-16T17:59:47.195Z,5.26
2023-03-16T18:02:43.887Z,5.17
2023-03-16T18:05:22.069Z,5.20
2023-03-16T18:07:49.348Z,5.15
2023-03-16T18:10:22.321Z,5.21
2023-03-16T18:12:55.008Z,5.26
2023-03-16T18:15:23.023Z,5.29
2023-03-16T18:17:50.774Z,5.29
2023-03-16T18:20:23.059Z,5.30
2023-03-16T18:22:50.205Z,5.31
2023-03-16T18:25:35.253Z,5.32
2023-03-16T18:28:02.577Z,5.34
2023-03-16T18:30:30.653Z,5.29
2023-03-16T18:32:58.464Z,5.28
2023-03-16T18:35:25.322Z,5.32
2023-03-16T18:37:54.801Z,5.30
2023-03-16T18:40:23.524Z,5.27
2023-03-16T18:42:51.091Z,5.18
2023-03-16T18:45:17.592Z,5.19
2023-03-16T18:47:49.518Z,5.12
2023-03-16T18:50:21.415Z,5.17
2023-03-16T18:52:48.597Z,5.22
2023-03-16T18:55:18.438Z,5.14
2023-03-16T18:57:47.662Z,5.15
2023-03-16T19:00:23.467Z,5.01
2023-03-16T19:03:02.992Z,5.01
2023-03-16T19:05:35.772Z,5.02
2023-03-16T19:08:05.094Z,5.02
2023-03-16T19:10:36.740Z,4.98
2023-03-16T19:13:03.309Z,4.93
2023-03-16T19:15:32.784Z,5.01
2023-03-16T19:17:59.983Z,4.93
2023-03-16T19:20:32.669Z,5.00
2023-03-16T19:23:20.240Z,4.99
2023-03-16T19:25:47.579Z,4.98
2023-03-16T19:28:19.843Z,5.04
2023-03-16T19:30:47.351Z,4.98
2023-03-16T19:33:27.978Z,5.01
2023-03-16T19:35:55.847Z,5.06
2023-03-16T19:38:23.878Z,5.07
2023-03-16T19:40:56.632Z,5.00
2023-03-16T19:43:23.988Z,4.95
2023-03-16T19:45:51.395Z,4.93
2023-03-16T19:48:21.345Z,4.93
2023-03-16T19:50:49.261Z,4.88
2023-03-16T19:53:18.974Z,4.93
2023-03-16T19:55:50.939Z,4.97
2023-03-16T19:58:33.386Z,5.02
2023-03-16T20:01:01.149Z,4.92
2023-03-16T20:03:29.249Z,4.93
2023-03-16T20:05:55.701Z,4.99
2023-03-16T20:08:25.458Z,4.86
2023-03-16T20:10:54.376Z,4.98
2023-03-16T20:13:21.457Z,4.98
2023-03-16T20:15:48.099Z,4.86
2023-03-16T20:18:18.623Z,4.92
2023-03-16T20:20:46.184Z,4.92
2023-03-16T20:23:21.676Z,4.91
2023-03-16T20:25:49.046Z,4.92
2023-03-16T20:28:22.763Z,4.89
2023-03-16T20:30:50.604Z,4.94
2023-03-16T20:33:23.775Z,4.91
2023-03-16T20:35:54.710Z,4.94
2023-03-16T20:38:22.499Z,4.94
2023-03-16T20:40:52.291Z,5.03
2023-03-16T20:43:31.302Z,4.98
2023-03-16T20:46:01.340Z,5.02
2023-03-16T20:48:28.434Z,5.07
2023-03-16T20:50:56.306Z,5.01
2023-03-16T20:53:23.581Z,4.98
2023-03-16T20:55:51.759Z,4.94
2023-03-16T20:58:24.485Z,5.01
2023-03-16T21:00:53.064Z,4.95
2023-03-16T21:03:22.417Z,5.00
2023-03-16T21:05:53.346Z,5.01
2023-03-16T21:08:20.033Z,4.90
2023-03-16T21:10:48.960Z,4.89
2023-03-16T21:13:22.737Z,4.81
2023-03-16T21:15:52.455Z,4.83
2023-03-16T21:18:20.775Z,4.72
2023-03-16T21:20:49.567Z,4.65
2023-03-16T21:23:23.595Z,4.53
2023-03-16T21:25:52.064Z,4.49
2023-03-16T21:28:20.398Z,4.45
2023-03-16T21:30:49.170Z,4.46
2023-03-16T21:33:20.259Z,4.41
2023-03-16T21:35:47.072Z,4.51
2023-03-16T21:38:20.438Z,4.54
2023-03-16T21:40:48.299Z,4.34
2023-03-16T21:43:15.679Z,4.24
2023-03-16T21:45:42.741Z,4.25
2023-03-16T21:48:25.672Z,4.19
2023-03-16T21:50:54.433Z,4.21
2023-03-16T21:53:27.075Z,4.25
2023-03-16T21:55:55.261Z,4.21
2023-03-16T21:58:23.158Z,4.24
2023-03-16T22:00:51.689Z,4.16
2023-03-16T22:03:47.963Z,4.15
2023-03-16T22:06:17.808Z,4.08
2023-03-16T22:08:44.425Z,4.10
2023-03-16T22:11:20.132Z,4.09
2023-03-16T22:13:47.501Z,4.16
2023-03-16T22:16:19.615Z,4.12
2023-03-16T22:18:48.662Z,4.09
2023-03-16T22:21:35.179Z,3.96
2023-03-16T22:24:05.257Z,3.92
2023-03-16T22:26:31.990Z,3.98
2023-03-16T22:29:00.859Z,3.88
2023-03-16T22:31:34.057Z,3.86
2023-03-16T22:34:03.126Z,3.90
2023-03-16T22:36:31.629Z,4.04
2023-03-16T22:39:01.519Z,3.87
2023-03-16T22:41:30.159Z,3.95
2023-03-16T22:43:57.059Z,3.93
2023-03-16T22:46:26.799Z,3.85
2023-03-16T22:48:54.589Z,3.86
2023-03-16T22:51:32.736Z,3.86
2023-03-16T22:54:04.754Z,3.75
2023-03-16T22:56:32.562Z,3.81
2023-03-16T22:59:02.894Z,3.84
2023-03-16T23:01:42.455Z,3.80
2023-03-16T23:04:24.672Z,3.85
2023-03-16T23:06:53.304Z,3.70
2023-03-16T23:09:21.766Z,3.78
2023-03-16T23:11:54.626Z,3.81
2023-03-16T23:14:27.234Z,3.76
2023-03-16T23:16:53.957Z,3.76
2023-03-16T23:19:26.561Z,3.79
2023-03-16T23:21:55.800Z,3.71
2023-03-16T23:24:22.861Z,3.68
2023-03-16T23:26:50.935Z,3.73
2023-03-16T23:29:17.667Z,3.73
2023-03-16T23:31:44.322Z,3.68
2023-03-16T23:34:13.000Z,3.77
2023-03-16T23:36:39.940Z,3.72
2023-03-16T23:39:07.228Z,3.72
2023-03-16T23:41:34.959Z,3.72
2023-03-16T23:44:02.699Z,3.73
2023-03-16T23:46:29.500Z,3.81
2023-03-16T23:48:58.468Z,3.75
2023-03-16T23:51:31.392Z,3.77
2023-03-16T23:53:58.805Z,3.78
2023-03-16T23:56:26.957Z,3.69
2023-03-16T23:58:54.453Z,3.69
